sensor_id;sensor_type;location;lat;lon;timestamp;P1;durP1;ratioP1;P2;durP2;ratioP2
51949;SDS011;37974;53.218;6.640;2024-03-17T00:00:44;1696.13;;;999.90;;
51949;SDS011;37974;53.218;6.640;2024-03-17T00:03:10;1423.10;;;999.90;;
51949;SDS011;37974;53.218;6.640;2024-03-17T00:05:37;1541.43;;;999.90;;
51949;SDS011;37974;53.218;6.640;2024-03-17T00:08:03;1578.75;;;999.90;;
51949;SDS011;37974;53.218;6.640;2024-03-17T00:10:31;1777.75;;;999.90;;
51949;SDS011;37974;53.218;6.640;2024-03-17T00:12:57;1737.05;;;999.90;;
51949;SDS011;37974;53.218;6.640;2024-03-17T00:15:23;1705.25;;;999.90;;
51949;SDS011;37974;53.218;6.640;2024-03-17T00:17:49;1747.93;;;999.90;;
51949;SDS011;37974;53.218;6.640;2024-03-17T00:20:15;1910.93;;;999.90;;
51949;SDS011;37974;53.218;6.640;2024-03-17T00:22:47;1392.20;;;999.90;;
51949;SDS011;37974;53.218;6.640;2024-03-17T00:25:13;1638.43;;;999.90;;
51949;SDS011;37974;53.218;6.640;2024-03-17T00:27:39;1550.80;;;999.90;;
51949;SDS011;37974;53.218;6.640;2024-03-17T00:30:08;1459.35;;;999.90;;
51949;SDS011;37974;53.218;6.640;2024-03-17T00:32:37;1685.47;;;999.90;;
51949;SDS011;37974;53.218;6.640;2024-03-17T00:35:04;1564.03;;;999.90;;
51949;SDS011;37974;53.218;6.640;2024-03-17T00:37:32;1604.72;;;999.90;;
51949;SDS011;37974;53.218;6.640;2024-03-17T00:39:58;1626.88;;;999.90;;
51949;SDS011;37974;53.218;6.640;2024-03-17T00:42:25;1933.45;;;999.90;;
51949;SDS011;37974;53.218;6.640;2024-03-17T00:44:51;1697.07;;;999.90;;
51949;SDS011;37974;53.218;6.640;2024-03-17T00:47:16;1741.18;;;999.90;;
51949;SDS011;37974;53.218;6.640;2024-03-17T00:49:42;1574.25;;;999.90;;
51949;SDS011;37974;53.218;6.640;2024-03-17T00:52:08;1531.95;;;999.90;;
51949;SDS011;37974;53.218;6.640;2024-03-17T00:54:34;1812.93;;;999.90;;
51949;SDS011;37974;53.218;6.640;2024-03-17T00:57:00;1820.78;;;999.90;;
51949;SDS011;37974;53.218;6.640;2024-03-17T00:59:26;1617.50;;;999.90;;
51949;SDS011;37974;53.218;6.640;2024-03-17T01:01:52;1758.55;;;999.90;;
51949;SDS011;37974;53.218;6.640;2024-03-17T01:04:18;1999.90;;;999.90;;
51949;SDS011;37974;53.218;6.640;2024-03-17T01:06:44;1836.82;;;999.90;;
51949;SDS011;37974;53.218;6.640;2024-03-17T01:09:09;1934.05;;;999.90;;
51949;SDS011;37974;53.218;6.640;2024-03-17T01:11:35;1984.00;;;999.90;;
51949;SDS011;37974;53.218;6.640;2024-03-17T01:14:01;1998.53;;;999.90;;
51949;SDS011;37974;53.218;6.640;2024-03-17T01:16:26;1539.07;;;999.90;;
51949;SDS011;37974;53.218;6.640;2024-03-17T01:18:52;1723.15;;;999.90;;
51949;SDS011;37974;53.218;6.640;2024-03-17T01:21:19;1999.90;;;999.90;;
51949;SDS011;37974;53.218;6.640;2024-03-17T01:23:47;1907.10;;;999.90;;
51949;SDS011;37974;53.218;6.640;2024-03-17T01:26:13;1999.90;;;999.90;;
51949;SDS011;37974;53.218;6.640;2024-03-17T01:28:39;1473.80;;;999.90;;
51949;SDS011;37974;53.218;6.640;2024-03-17T01:31:05;1823.50;;;999.90;;
51949;SDS011;37974;53.218;6.640;2024-03-17T01:33:32;1999.90;;;999.90;;
51949;SDS011;37974;53.218;6.640;2024-03-17T01:35:57;1999.90;;;999.90;;
51949;SDS011;37974;53.218;6.640;2024-03-17T01:38:23;1467.03;;;999.90;;
51949;SDS011;37974;53.218;6.640;2024-03-17T01:40:49;1999.90;;;999.90;;
51949;SDS011;37974;53.218;6.640;2024-03-17T01:43:14;1635.57;;;999.90;;
51949;SDS011;37974;53.218;6.640;2024-03-17T01:45:40;1999.90;;;999.90;;
51949;SDS011;37974;53.218;6.640;2024-03-17T01:48:08;1999.90;;;999.90;;
51949;SDS011;37974;53.218;6.640;2024-03-17T01:50:41;1559.15;;;999.90;;
51949;SDS011;37974;53.218;6.640;2024-03-17T01:53:09;1999.90;;;999.90;;
51949;SDS011;37974;53.218;6.640;2024-03-17T01:55:38;1999.90;;;999.90;;
51949;SDS011;37974;53.218;6.640;2024-03-17T01:58:07;1564.00;;;999.90;;
51949;SDS011;37974;53.218;6.640;2024-03-17T02:00:35;1999.90;;;999.90;;
51949;SDS011;37974;53.218;6.640;2024-03-17T02:03:03;1999.90;;;999.90;;
51949;SDS011;37974;53.218;6.640;2024-03-17T02:05:30;1999.90;;;999.90;;
51949;SDS011;37974;53.218;6.640;2024-03-17T02:07:56;1999.90;;;999.90;;
51949;SDS011;37974;53.218;6.640;2024-03-17T02:10:22;1696.55;;;999.90;;
51949;SDS011;37974;53.218;6.640;2024-03-17T02:12:48;1980.95;;;999.90;;
51949;SDS011;37974;53.218;6.640;2024-03-17T02:15:17;1803.63;;;999.90;;
51949;SDS011;37974;53.218;6.640;2024-03-17T02:17:43;1819.97;;;999.90;;
51949;SDS011;37974;53.218;6.640;2024-03-17T02:20:09;1999.90;;;999.90;;
51949;SDS011;37974;53.218;6.640;2024-03-17T02:22:36;1999.90;;;999.90;;
51949;SDS011;37974;53.218;6.640;2024-03-17T02:25:03;1999.90;;;999.90;;
51949;SDS011;37974;53.218;6.640;2024-03-17T02:27:29;1999.90;;;999.90;;
51949;SDS011;37974;53.218;6.640;2024-03-17T02:29:55;1980.55;;;999.90;;
51949;SDS011;37974;53.218;6.640;2024-03-17T02:32:21;1999.90;;;999.90;;
51949;SDS011;37974;53.218;6.640;2024-03-17T02:34:48;1894.32;;;999.90;;
51949;SDS011;37974;53.218;6.640;2024-03-17T02:37:14;1999.90;;;999.90;;
51949;SDS011;37974;53.218;6.640;2024-03-17T02:39:39;1999.90;;;999.90;;
51949;SDS011;37974;53.218;6.640;2024-03-17T02:42:07;1999.90;;;999.90;;
51949;SDS011;37974;53.218;6.640;2024-03-17T02:44:34;1999.90;;;999.90;;
51949;SDS011;37974;53.218;6.640;2024-03-17T02:47:01;1999.90;;;999.90;;
51949;SDS011;37974;53.218;6.640;2024-03-17T02:49:30;1999.90;;;999.90;;
51949;SDS011;37974;53.218;6.640;2024-03-17T02:52:03;1928.10;;;999.90;;
51949;SDS011;37974;53.218;6.640;2024-03-17T02:54:30;1999.90;;;999.90;;
51949;SDS011;37974;53.218;6.640;2024-03-17T02:56:56;1999.90;;;999.90;;
51949;SDS011;37974;53.218;6.640;2024-03-17T02:59:22;1999.90;;;999.90;;
51949;SDS011;37974;53.218;6.640;2024-03-17T03:01:48;1999.90;;;999.90;;
51949;SDS011;37974;53.218;6.640;2024-03-17T03:04:14;1999.90;;;999.90;;
51949;SDS011;37974;53.218;6.640;2024-03-17T03:06:40;1998.10;;;999.90;;
51949;SDS011;37974;53.218;6.640;2024-03-17T03:09:06;1847.65;;;999.90;;
51949;SDS011;37974;53.218;6.640;2024-03-17T03:11:38;1929.05;;;999.90;;
51949;SDS011;37974;53.218;6.640;2024-03-17T03:14:05;1999.90;;;999.90;;
51949;SDS011;37974;53.218;6.640;2024-03-17T03:16:31;1999.90;;;999.90;;
51949;SDS011;37974;53.218;6.640;2024-03-17T03:18:56;1999.90;;;999.90;;
51949;SDS011;37974;53.218;6.640;2024-03-17T03:21:22;1999.90;;;999.90;;
51949;SDS011;37974;53.218;6.640;2024-03-17T03:23:48;1562.85;;;999.90;;
51949;SDS011;37974;53.218;6.640;2024-03-17T03:26:13;1986.47;;;999.90;;
51949;SDS011;37974;53.218;6.640;2024-03-17T03:28:39;1999.90;;;999.90;;
51949;SDS011;37974;53.218;6.640;2024-03-17T03:31:05;1936.72;;;999.90;;
51949;SDS011;37974;53.218;6.640;2024-03-17T03:33:32;1999.90;;;999.90;;
51949;SDS011;37974;53.218;6.640;2024-03-17T03:35:57;1943.88;;;999.90;;
51949;SDS011;37974;53.218;6.640;2024-03-17T03:38:23;1810.00;;;999.90;;
51949;SDS011;37974;53.218;6.640;2024-03-17T03:40:49;1969.40;;;999.90;;
51949;SDS011;37974;53.218;6.640;2024-03-17T03:43:15;1999.90;;;999.90;;
51949;SDS011;37974;53.218;6.640;2024-03-17T03:45:41;1999.90;;;999.90;;
51949;SDS011;37974;53.218;6.640;2024-03-17T03:48:07;1472.45;;;999.90;;
51949;SDS011;37974;53.218;6.640;2024-03-17T03:50:34;1999.90;;;999.90;;
51949;SDS011;37974;53.218;6.640;2024-03-17T03:53:00;1787.22;;;999.90;;
51949;SDS011;37974;53.218;6.640;2024-03-17T03:55:26;1642.72;;;999.90;;
51949;SDS011;37974;53.218;6.640;2024-03-17T03:57:52;1749.72;;;999.90;;
51949;SDS011;37974;53.218;6.640;2024-03-17T04:00:18;1722.63;;;999.90;;
51949;SDS011;37974;53.218;6.640;2024-03-17T04:02:54;1491.32;;;999.90;;
51949;SDS011;37974;53.218;6.640;2024-03-17T04:05:20;1494.45;;;999.90;;
51949;SDS011;37974;53.218;6.640;2024-03-17T04:07:48;1443.35;;;999.90;;
51949;SDS011;37974;53.218;6.640;2024-03-17T04:10:14;1611.28;;;999.90;;
51949;SDS011;37974;53.218;6.640;2024-03-17T04:12:40;1576.65;;;999.90;;
51949;SDS011;37974;53.218;6.640;2024-03-17T04:15:07;1824.95;;;999.90;;
51949;SDS011;37974;53.218;6.640;2024-03-17T04:17:35;1504.63;;;999.90;;
51949;SDS011;37974;53.218;6.640;2024-03-17T04:20:02;1505.47;;;999.90;;
51949;SDS011;37974;53.218;6.640;2024-03-17T04:22:30;1796.72;;;999.90;;
51949;SDS011;37974;53.218;6.640;2024-03-17T04:24:56;1486.20;;;999.90;;
51949;SDS011;37974;53.218;6.640;2024-03-17T04:27:22;1449.90;;;999.90;;
51949;SDS011;37974;53.218;6.640;2024-03-17T04:29:53;1435.72;;;999.90;;
51949;SDS011;37974;53.218;6.640;2024-03-17T04:32:20;1495.75;;;999.90;;
51949;SDS011;37974;53.218;6.640;2024-03-17T04:34:47;1399.97;;;999.90;;
51949;SDS011;37974;53.218;6.640;2024-03-17T04:37:13;1647.43;;;999.90;;
51949;SDS011;37974;53.218;6.640;2024-03-17T04:39:39;1539.63;;;999.90;;
51949;SDS011;37974;53.218;6.640;2024-03-17T04:42:07;1305.97;;;999.90;;
51949;SDS011;37974;53.218;6.640;2024-03-17T04:44:32;1285.47;;;999.90;;
51949;SDS011;37974;53.218;6.640;2024-03-17T04:46:58;1398.22;;;999.90;;
51949;SDS011;37974;53.218;6.640;2024-03-17T04:49:24;1655.35;;;999.90;;
51949;SDS011;37974;53.218;6.640;2024-03-17T04:51:49;1635.88;;;999.90;;
51949;SDS011;37974;53.218;6.640;2024-03-17T04:54:15;1528.30;;;999.90;;
51949;SDS011;37974;53.218;6.640;2024-03-17T04:56:41;1352.80;;;999.90;;
51949;SDS011;37974;53.218;6.640;2024-03-17T04:59:07;1535.72;;;999.90;;
51949;SDS011;37974;53.218;6.640;2024-03-17T05:01:32;1277.65;;;999.90;;
51949;SDS011;37974;53.218;6.640;2024-03-17T05:04:02;1418.70;;;999.90;;
51949;SDS011;37974;53.218;6.640;2024-03-17T05:06:28;1281.72;;;999.90;;
51949;SDS011;37974;53.218;6.640;2024-03-17T05:08:54;1382.80;;;999.90;;
51949;SDS011;37974;53.218;6.640;2024-03-17T05:11:20;1631.05;;;999.90;;
51949;SDS011;37974;53.218;6.640;2024-03-17T05:13:46;1362.47;;;999.90;;
51949;SDS011;37974;53.218;6.640;2024-03-17T05:16:12;1376.32;;;999.90;;
51949;SDS011;37974;53.218;6.640;2024-03-17T05:18:37;1283.07;;;999.90;;
51949;SDS011;37974;53.218;6.640;2024-03-17T05:21:05;1419.90;;;999.90;;
51949;SDS011;37974;53.218;6.640;2024-03-17T05:23:32;1482.00;;;999.90;;
51949;SDS011;37974;53.218;6.640;2024-03-17T05:25:59;1491.85;;;999.90;;
51949;SDS011;37974;53.218;6.640;2024-03-17T05:28:26;1408.25;;;999.90;;
51949;SDS011;37974;53.218;6.640;2024-03-17T05:30:52;1488.13;;;999.90;;
51949;SDS011;37974;53.218;6.640;2024-03-17T05:33:19;1386.60;;;999.90;;
51949;SDS011;37974;53.218;6.640;2024-03-17T05:35:51;1339.75;;;999.90;;
51949;SDS011;37974;53.218;6.640;2024-03-17T05:38:19;1490.07;;;999.90;;
51949;SDS011;37974;53.218;6.640;2024-03-17T05:40:53;1632.07;;;999.90;;
51949;SDS011;37974;53.218;6.640;2024-03-17T05:43:21;1479.88;;;999.90;;
51949;SDS011;37974;53.218;6.640;2024-03-17T05:45:49;1551.53;;;999.90;;
51949;SDS011;37974;53.218;6.640;2024-03-17T05:48:16;1473.63;;;999.90;;
51949;SDS011;37974;53.218;6.640;2024-03-17T05:50:42;1282.22;;;999.90;;
51949;SDS011;37974;53.218;6.640;2024-03-17T05:53:08;1219.60;;;999.90;;
51949;SDS011;37974;53.218;6.640;2024-03-17T05:55:35;1215.78;;;999.90;;
51949;SDS011;37974;53.218;6.640;2024-03-17T05:58:01;1217.88;;;999.90;;
51949;SDS011;37974;53.218;6.640;2024-03-17T06:00:27;1299.70;;;999.90;;
51949;SDS011;37974;53.218;6.640;2024-03-17T06:02:53;1394.63;;;999.90;;
51949;SDS011;37974;53.218;6.640;2024-03-17T06:05:19;1384.18;;;999.90;;
51949;SDS011;37974;53.218;6.640;2024-03-17T06:07:45;1380.82;;;999.90;;
51949;SDS011;37974;53.218;6.640;2024-03-17T06:10:12;1415.55;;;999.90;;
51949;SDS011;37974;53.218;6.640;2024-03-17T06:12:37;1461.70;;;999.90;;
51949;SDS011;37974;53.218;6.640;2024-03-17T06:15:03;1428.07;;;999.90;;
51949;SDS011;37974;53.218;6.640;2024-03-17T06:17:29;1451.35;;;999.90;;
51949;SDS011;37974;53.218;6.640;2024-03-17T06:19:55;1377.63;;;999.90;;
51949;SDS011;37974;53.218;6.640;2024-03-17T06:22:22;1309.53;;;999.90;;
51949;SDS011;37974;53.218;6.640;2024-03-17T06:24:48;1184.03;;;999.90;;
51949;SDS011;37974;53.218;6.640;2024-03-17T06:27:14;1196.63;;;999.90;;
51949;SDS011;37974;53.218;6.640;2024-03-17T06:29:41;1441.55;;;999.90;;
51949;SDS011;37974;53.218;6.640;2024-03-17T06:32:08;1589.53;;;999.90;;
51949;SDS011;37974;53.218;6.640;2024-03-17T06:34:33;1265.15;;;999.90;;
51949;SDS011;37974;53.218;6.640;2024-03-17T06:36:59;1453.40;;;999.90;;
51949;SDS011;37974;53.218;6.640;2024-03-17T06:39:25;1264.38;;;999.90;;
51949;SDS011;37974;53.218;6.640;2024-03-17T06:41:51;1404.07;;;999.90;;
51949;SDS011;37974;53.218;6.640;2024-03-17T06:44:17;1257.30;;;999.90;;
51949;SDS011;37974;53.218;6.640;2024-03-17T06:46:44;1175.50;;;999.90;;
51949;SDS011;37974;53.218;6.640;2024-03-17T06:49:12;1148.63;;;999.90;;
51949;SDS011;37974;53.218;6.640;2024-03-17T06:51:38;1214.32;;;999.90;;
51949;SDS011;37974;53.218;6.640;2024-03-17T06:54:03;1161.53;;;999.90;;
51949;SDS011;37974;53.218;6.640;2024-03-17T06:56:29;1136.28;;;999.90;;
51949;SDS011;37974;53.218;6.640;2024-03-17T06:58:57;1004.05;;;910.45;;
51949;SDS011;37974;53.218;6.640;2024-03-17T07:01:23;1001.08;;;908.33;;
51949;SDS011;37974;53.218;6.640;2024-03-17T07:03:49;999.78;;;906.72;;
51949;SDS011;37974;53.218;6.640;2024-03-17T07:06:14;1022.03;;;925.08;;
51949;SDS011;37974;53.218;6.640;2024-03-17T07:08:40;986.83;;;895.95;;
51949;SDS011;37974;53.218;6.640;2024-03-17T07:11:07;991.45;;;901.40;;
51949;SDS011;37974;53.218;6.640;2024-03-17T07:13:34;1024.47;;;926.50;;
51949;SDS011;37974;53.218;6.640;2024-03-17T07:16:01;1003.70;;;910.53;;
51949;SDS011;37974;53.218;6.640;2024-03-17T07:18:31;1065.05;;;957.88;;
51949;SDS011;37974;53.218;6.640;2024-03-17T07:20:57;1033.30;;;933.72;;
51949;SDS011;37974;53.218;6.640;2024-03-17T07:23:25;1068.40;;;961.33;;
51949;SDS011;37974;53.218;6.640;2024-03-17T07:25:52;1038.53;;;939.28;;
51949;SDS011;37974;53.218;6.640;2024-03-17T07:28:19;978.53;;;889.92;;
51949;SDS011;37974;53.218;6.640;2024-03-17T07:30:47;1026.50;;;930.20;;
51949;SDS011;37974;53.218;6.640;2024-03-17T07:33:14;925.10;;;845.38;;
51949;SDS011;37974;53.218;6.640;2024-03-17T07:35:47;933.53;;;852.75;;
51949;SDS011;37974;53.218;6.640;2024-03-17T07:38:13;950.78;;;867.10;;
51949;SDS011;37974;53.218;6.640;2024-03-17T07:40:39;925.08;;;845.20;;
51949;SDS011;37974;53.218;6.640;2024-03-17T07:43:05;924.88;;;845.20;;
51949;SDS011;37974;53.218;6.640;2024-03-17T07:45:30;936.00;;;854.15;;
51949;SDS011;37974;53.218;6.640;2024-03-17T07:47:56;938.35;;;855.88;;
51949;SDS011;37974;53.218;6.640;2024-03-17T07:50:22;937.05;;;855.03;;
51949;SDS011;37974;53.218;6.640;2024-03-17T07:52:48;923.78;;;843.80;;
51949;SDS011;37974;53.218;6.640;2024-03-17T07:55:13;912.55;;;833.50;;
51949;SDS011;37974;53.218;6.640;2024-03-17T07:57:39;933.13;;;851.33;;
51949;SDS011;37974;53.218;6.640;2024-03-17T08:00:06;928.05;;;847.55;;
51949;SDS011;37974;53.218;6.640;2024-03-17T08:02:41;930.85;;;849.10;;
51949;SDS011;37974;53.218;6.640;2024-03-17T08:05:10;932.55;;;850.53;;
51949;SDS011;37974;53.218;6.640;2024-03-17T08:07:35;914.60;;;835.58;;
51949;SDS011;37974;53.218;6.640;2024-03-17T08:10:01;901.05;;;824.28;;
51949;SDS011;37974;53.218;6.640;2024-03-17T08:12:28;911.00;;;833.00;;
51949;SDS011;37974;53.218;6.640;2024-03-17T08:14:54;913.35;;;833.30;;
51949;SDS011;37974;53.218;6.640;2024-03-17T08:17:20;915.67;;;836.35;;
51949;SDS011;37974;53.218;6.640;2024-03-17T08:19:46;925.92;;;845.78;;
51949;SDS011;37974;53.218;6.640;2024-03-17T08:22:12;916.67;;;837.30;;
51949;SDS011;37974;53.218;6.640;2024-03-17T08:24:40;897.58;;;822.00;;
51949;SDS011;37974;53.218;6.640;2024-03-17T08:27:05;880.92;;;807.92;;
51949;SDS011;37974;53.218;6.640;2024-03-17T08:29:31;883.17;;;808.90;;
51949;SDS011;37974;53.218;6.640;2024-03-17T08:31:58;926.90;;;846.13;;
51949;SDS011;37974;53.218;6.640;2024-03-17T08:34:24;895.20;;;819.33;;
51949;SDS011;37974;53.218;6.640;2024-03-17T08:36:50;889.67;;;814.80;;
51949;SDS011;37974;53.218;6.640;2024-03-17T08:39:16;904.67;;;827.75;;
51949;SDS011;37974;53.218;6.640;2024-03-17T08:41:41;920.50;;;840.78;;
51949;SDS011;37974;53.218;6.640;2024-03-17T08:44:09;937.92;;;854.85;;
51949;SDS011;37974;53.218;6.640;2024-03-17T08:46:35;923.03;;;842.05;;
51949;SDS011;37974;53.218;6.640;2024-03-17T08:49:01;918.13;;;838.80;;
51949;SDS011;37974;53.218;6.640;2024-03-17T08:51:26;866.60;;;794.70;;
51949;SDS011;37974;53.218;6.640;2024-03-17T08:53:52;870.22;;;795.25;;
51949;SDS011;37974;53.218;6.640;2024-03-17T08:56:19;874.88;;;802.25;;
51949;SDS011;37974;53.218;6.640;2024-03-17T08:58:48;913.35;;;834.95;;
51949;SDS011;37974;53.218;6.640;2024-03-17T09:01:14;877.60;;;804.03;;
51949;SDS011;37974;53.218;6.640;2024-03-17T09:03:41;918.33;;;839.35;;
51949;SDS011;37974;53.218;6.640;2024-03-17T09:06:14;898.90;;;822.53;;
51949;SDS011;37974;53.218;6.640;2024-03-17T09:08:41;875.65;;;802.10;;
51949;SDS011;37974;53.218;6.640;2024-03-17T09:11:11;839.17;;;769.22;;
51949;SDS011;37974;53.218;6.640;2024-03-17T09:13:38;861.47;;;789.85;;
51949;SDS011;37974;53.218;6.640;2024-03-17T09:16:04;883.53;;;809.00;;
51949;SDS011;37974;53.218;6.640;2024-03-17T09:18:31;831.28;;;763.40;;
51949;SDS011;37974;53.218;6.640;2024-03-17T09:21:00;884.35;;;809.13;;
51949;SDS011;37974;53.218;6.640;2024-03-17T09:23:28;837.28;;;768.65;;
51949;SDS011;37974;53.218;6.640;2024-03-17T09:25:55;830.65;;;763.40;;
51949;SDS011;37974;53.218;6.640;2024-03-17T09:28:22;852.72;;;782.55;;
51949;SDS011;37974;53.218;6.640;2024-03-17T09:30:48;856.17;;;785.42;;
51949;SDS011;37974;53.218;6.640;2024-03-17T09:33:14;893.33;;;817.47;;
51949;SDS011;37974;53.218;6.640;2024-03-17T09:35:58;886.58;;;811.63;;
51949;SDS011;37974;53.218;6.640;2024-03-17T09:38:25;900.92;;;823.78;;
51949;SDS011;37974;53.218;6.640;2024-03-17T09:40:52;842.63;;;773.45;;
51949;SDS011;37974;53.218;6.640;2024-03-17T09:43:20;839.50;;;770.85;;
51949;SDS011;37974;53.218;6.640;2024-03-17T09:45:46;823.53;;;757.13;;
51949;SDS011;37974;53.218;6.640;2024-03-17T09:48:14;868.33;;;794.78;;
51949;SDS011;37974;53.218;6.640;2024-03-17T09:50:49;866.03;;;793.65;;
51949;SDS011;37974;53.218;6.640;2024-03-17T09:53:17;781.13;;;719.25;;
51949;SDS011;37974;53.218;6.640;2024-03-17T09:55:49;811.40;;;745.85;;
51949;SDS011;37974;53.218;6.640;2024-03-17T09:58:15;860.40;;;788.63;;
51949;SDS011;37974;53.218;6.640;2024-03-17T10:00:43;804.67;;;740.92;;
51949;SDS011;37974;53.218;6.640;2024-03-17T10:03:09;839.97;;;771.45;;
51949;SDS011;37974;53.218;6.640;2024-03-17T10:05:35;847.90;;;778.05;;
51949;SDS011;37974;53.218;6.640;2024-03-17T10:08:00;775.10;;;713.92;;
51949;SDS011;37974;53.218;6.640;2024-03-17T10:10:27;831.15;;;763.63;;
51949;SDS011;37974;53.218;6.640;2024-03-17T10:13:11;784.45;;;722.47;;
51949;SDS011;37974;53.218;6.640;2024-03-17T10:15:40;887.55;;;808.25;;
51949;SDS011;37974;53.218;6.640;2024-03-17T10:18:20;767.75;;;707.50;;
51949;SDS011;37974;53.218;6.640;2024-03-17T10:23:17;751.42;;;692.83;;
51949;SDS011;37974;53.218;6.640;2024-03-17T10:25:44;853.67;;;781.38;;
51949;SDS011;37974;53.218;6.640;2024-03-17T10:28:10;905.85;;;827.20;;
51949;SDS011;37974;53.218;6.640;2024-03-17T10:30:37;883.13;;;808.35;;
51949;SDS011;37974;53.218;6.640;2024-03-17T10:33:05;838.88;;;769.97;;
51949;SDS011;37974;53.218;6.640;2024-03-17T10:35:34;907.88;;;829.17;;
51949;SDS011;37974;53.218;6.640;2024-03-17T10:38:09;863.33;;;791.63;;
51949;SDS011;37974;53.218;6.640;2024-03-17T10:40:37;867.80;;;796.05;;
51949;SDS011;37974;53.218;6.640;2024-03-17T10:43:04;833.50;;;765.97;;
51949;SDS011;37974;53.218;6.640;2024-03-17T10:45:30;849.97;;;779.65;;
51949;SDS011;37974;53.218;6.640;2024-03-17T10:48:06;795.10;;;731.53;;
51949;SDS011;37974;53.218;6.640;2024-03-17T10:50:35;784.90;;;722.88;;
51949;SDS011;37974;53.218;6.640;2024-03-17T10:53:03;805.72;;;741.65;;
51949;SDS011;37974;53.218;6.640;2024-03-17T10:55:43;785.90;;;723.55;;
51949;SDS011;37974;53.218;6.640;2024-03-17T10:58:15;778.28;;;717.20;;
51949;SDS011;37974;53.218;6.640;2024-03-17T11:00:50;822.80;;;755.95;;
51949;SDS011;37974;53.218;6.640;2024-03-17T11:03:17;836.47;;;768.10;;
51949;SDS011;37974;53.218;6.640;2024-03-17T11:05:43;781.05;;;720.00;;
51949;SDS011;37974;53.218;6.640;2024-03-17T11:08:14;787.65;;;725.60;;
51949;SDS011;37974;53.218;6.640;2024-03-17T11:10:48;799.65;;;735.97;;
51949;SDS011;37974;53.218;6.640;2024-03-17T11:13:24;761.22;;;701.53;;
51949;SDS011;37974;53.218;6.640;2024-03-17T11:15:51;807.85;;;742.35;;
51949;SDS011;37974;53.218;6.640;2024-03-17T11:21:02;807.85;;;743.45;;
51949;SDS011;37974;53.218;6.640;2024-03-17T11:23:37;795.47;;;732.03;;
51949;SDS011;37974;53.218;6.640;2024-03-17T11:26:03;730.33;;;674.00;;
51949;SDS011;37974;53.218;6.640;2024-03-17T11:31:31;714.38;;;659.90;;
51949;SDS011;37974;53.218;6.640;2024-03-17T11:34:02;732.50;;;675.70;;
51949;SDS011;37974;53.218;6.640;2024-03-17T11:36:33;737.28;;;680.28;;
51949;SDS011;37974;53.218;6.640;2024-03-17T11:39:06;765.53;;;706.08;;
51949;SDS011;37974;53.218;6.640;2024-03-17T11:41:46;714.67;;;659.78;;
51949;SDS011;37974;53.218;6.640;2024-03-17T11:46:54;708.80;;;654.88;;
51949;SDS011;37974;53.218;6.640;2024-03-17T11:51:49;682.50;;;630.53;;
51949;SDS011;37974;53.218;6.640;2024-03-17T11:54:17;659.47;;;610.20;;
51949;SDS011;37974;53.218;6.640;2024-03-17T11:56:45;586.42;;;543.45;;
51949;SDS011;37974;53.218;6.640;2024-03-17T11:59:13;626.97;;;580.15;;
51949;SDS011;37974;53.218;6.640;2024-03-17T12:01:39;573.03;;;531.25;;
51949;SDS011;37974;53.218;6.640;2024-03-17T12:04:05;430.20;;;401.10;;
51949;SDS011;37974;53.218;6.640;2024-03-17T12:06:32;379.55;;;355.25;;
51949;SDS011;37974;53.218;6.640;2024-03-17T12:09:10;326.25;;;305.98;;
51949;SDS011;37974;53.218;6.640;2024-03-17T12:11:46;351.33;;;328.85;;
51949;SDS011;37974;53.218;6.640;2024-03-17T12:14:14;346.15;;;324.30;;
51949;SDS011;37974;53.218;6.640;2024-03-17T12:16:47;310.23;;;290.80;;
51949;SDS011;37974;53.218;6.640;2024-03-17T12:19:15;334.40;;;313.60;;
51949;SDS011;37974;53.218;6.640;2024-03-17T12:21:44;252.00;;;236.82;;
51949;SDS011;37974;53.218;6.640;2024-03-17T12:24:15;361.45;;;338.45;;
51949;SDS011;37974;53.218;6.640;2024-03-17T12:26:45;317.83;;;297.67;;
51949;SDS011;37974;53.218;6.640;2024-03-17T12:29:33;363.60;;;339.88;;
51949;SDS011;37974;53.218;6.640;2024-03-17T12:32:04;268.42;;;252.02;;
51949;SDS011;37974;53.218;6.640;2024-03-17T12:34:35;275.30;;;257.92;;
51949;SDS011;37974;53.218;6.640;2024-03-17T12:37:02;281.08;;;263.30;;
51949;SDS011;37974;53.218;6.640;2024-03-17T12:39:31;301.15;;;281.77;;
51949;SDS011;37974;53.218;6.640;2024-03-17T12:42:05;306.98;;;286.73;;
51949;SDS011;37974;53.218;6.640;2024-03-17T12:44:33;347.90;;;325.20;;
51949;SDS011;37974;53.218;6.640;2024-03-17T12:47:02;243.82;;;228.52;;
51949;SDS011;37974;53.218;6.640;2024-03-17T12:49:29;234.77;;;220.20;;
51949;SDS011;37974;53.218;6.640;2024-03-17T12:51:56;256.17;;;239.50;;
51949;SDS011;37974;53.218;6.640;2024-03-17T12:54:23;289.42;;;271.23;;
51949;SDS011;37974;53.218;6.640;2024-03-17T12:56:51;294.05;;;275.42;;
51949;SDS011;37974;53.218;6.640;2024-03-17T12:59:46;253.40;;;237.70;;
51949;SDS011;37974;53.218;6.640;2024-03-17T13:02:31;249.85;;;234.48;;
51949;SDS011;37974;53.218;6.640;2024-03-17T13:05:19;194.95;;;182.82;;
51949;SDS011;37974;53.218;6.640;2024-03-17T13:07:46;230.80;;;216.15;;
51949;SDS011;37974;53.218;6.640;2024-03-17T13:10:13;234.98;;;219.13;;
51949;SDS011;37974;53.218;6.640;2024-03-17T13:12:39;198.68;;;185.75;;
51949;SDS011;37974;53.218;6.640;2024-03-17T13:15:08;206.02;;;191.95;;
51949;SDS011;37974;53.218;6.640;2024-03-17T13:17:36;298.40;;;278.33;;
51949;SDS011;37974;53.218;6.640;2024-03-17T13:20:02;252.73;;;237.00;;
51949;SDS011;37974;53.218;6.640;2024-03-17T13:22:29;191.23;;;179.20;;
51949;SDS011;37974;53.218;6.640;2024-03-17T13:24:54;198.85;;;186.68;;
51949;SDS011;37974;53.218;6.640;2024-03-17T13:27:20;212.68;;;199.73;;
51949;SDS011;37974;53.218;6.640;2024-03-17T13:29:47;136.23;;;125.55;;
51949;SDS011;37974;53.218;6.640;2024-03-17T13:32:14;129.75;;;121.65;;
51949;SDS011;37974;53.218;6.640;2024-03-17T13:34:41;135.48;;;126.28;;
51949;SDS011;37974;53.218;6.640;2024-03-17T13:37:06;193.23;;;180.02;;
51949;SDS011;37974;53.218;6.640;2024-03-17T13:39:32;194.30;;;181.88;;
51949;SDS011;37974;53.218;6.640;2024-03-17T13:41:59;121.35;;;113.32;;
51949;SDS011;37974;53.218;6.640;2024-03-17T13:44:31;160.00;;;150.00;;
51949;SDS011;37974;53.218;6.640;2024-03-17T13:46:57;149.88;;;140.52;;
51949;SDS011;37974;53.218;6.640;2024-03-17T13:49:24;167.57;;;156.52;;
51949;SDS011;37974;53.218;6.640;2024-03-17T13:51:52;161.45;;;151.15;;
51949;SDS011;37974;53.218;6.640;2024-03-17T13:54:18;182.18;;;170.43;;
51949;SDS011;37974;53.218;6.640;2024-03-17T13:56:48;165.00;;;154.60;;
51949;SDS011;37974;53.218;6.640;2024-03-17T13:59:15;186.02;;;174.48;;
51949;SDS011;37974;53.218;6.640;2024-03-17T14:01:42;165.25;;;154.85;;
51949;SDS011;37974;53.218;6.640;2024-03-17T14:04:13;160.63;;;150.70;;
51949;SDS011;37974;53.218;6.640;2024-03-17T14:06:41;183.82;;;172.07;;